createdAt,value
2023-01-30T00:01:48.068Z,0.76
2023-01-30T00:04:17.447Z,0.71
2023-01-30T00:06:45.318Z,0.73
2023-01-30T00:09:15.158Z,0.73
2023-01-30T00:11:43.240Z,0.68
2023-01-30T00:14:11.298Z,0.69
2023-01-30T00:16:39.360Z,0.60
2023-01-30T00:19:07.387Z,0.64
2023-01-30T00:21:35.458Z,0.67
2023-01-30T00:24:03.468Z,0.67
2023-01-30T00:26:31.409Z,0.67
2023-01-30T00:28:59.641Z,0.52
2023-01-30T00:31:27.594Z,0.44
2023-01-30T00:33:55.609Z,0.33
2023-01-30T00:36:24.708Z,0.36
2023-01-30T00:38:52.909Z,0.25
2023-01-30T00:41:20.867Z,0.03
2023-01-30T00:44:07.461Z,0.12
2023-01-30T00:46:54.126Z,0.07
2023-01-30T00:49:22.787Z,0.20
2023-01-30T00:51:50.638Z,0.23
2023-01-30T00:54:18.752Z,0.28
2023-01-30T00:56:48.910Z,0.22
2023-01-30T00:59:17.022Z,0.18
2023-01-30T01:01:46.291Z,0.35
2023-01-30T01:04:14.862Z,0.31
2023-01-30T01:06:42.920Z,0.23
2023-01-30T01:09:11.319Z,0.17
2023-01-30T01:11:39.105Z,0.22
2023-01-30T01:14:08.141Z,0.29
2023-01-30T01:16:36.795Z,0.06
2023-01-30T01:19:05.478Z,0.18
2023-01-30T01:21:33.386Z,0.28
2023-01-30T01:24:01.482Z,0.24
2023-01-30T01:26:29.488Z,0.10
2023-01-30T01:28:59.046Z,0.20
2023-01-30T01:31:27.316Z,0.03
2023-01-30T01:33:57.298Z,0.11
2023-01-30T01:36:52.089Z,0.24
2023-01-30T01:39:15.011Z,0.09
2023-01-30T01:41:43.187Z,0.12
2023-01-30T01:44:13.283Z,0.16
2023-01-30T01:46:52.172Z,0.08
2023-01-30T01:49:30.913Z,0.14
2023-01-30T01:52:08.559Z,0.14
2023-01-30T01:54:48.305Z,0.06
2023-01-30T01:57:24.963Z,-0.06
2023-01-30T02:00:17.652Z,-0.02
2023-01-30T02:02:52.886Z,0.01
2023-01-30T02:05:21.602Z,0.01
2023-01-30T02:08:24.707Z,0.13
2023-01-30T02:11:31.921Z,0.01
2023-01-30T02:14:01.747Z,0.04
2023-01-30T02:16:29.808Z,-0.03
2023-01-30T02:18:58.091Z,0.02
2023-01-30T02:21:34.804Z,-0.07
2023-01-30T02:24:41.805Z,-0.18
2023-01-30T02:27:09.754Z,-0.13
2023-01-30T02:30:03.512Z,-0.09
2023-01-30T02:32:58.940Z,-0.21
2023-01-30T02:36:08.286Z,-0.14
2023-01-30T02:38:50.090Z,-0.19
2023-01-30T02:41:25.173Z,-0.20
2023-01-30T02:44:17.281Z,-0.16
2023-01-30T02:47:00.609Z,-0.15
2023-01-30T02:49:52.706Z,-0.27
2023-01-30T02:52:22.665Z,-0.37
2023-01-30T02:54:50.717Z,-0.49
2023-01-30T02:58:59.220Z,-0.47
2023-01-30T03:01:34.365Z,-0.35
2023-01-30T03:04:27.721Z,-0.47
2023-01-30T03:07:25.357Z,-0.34
2023-01-30T03:10:07.706Z,-0.35
2023-01-30T03:13:01.437Z,-0.38
2023-01-30T03:15:42.748Z,-0.36
2023-01-30T03:18:11.289Z,-0.63
2023-01-30T03:20:41.506Z,-0.66
2023-01-30T03:23:09.460Z,-0.84
2023-01-30T03:25:39.910Z,-0.71
2023-01-30T03:28:09.983Z,-0.64
2023-01-30T03:30:37.933Z,-0.74
2023-01-30T03:33:09.932Z,-0.77
2023-01-30T03:35:40.678Z,-0.97
2023-01-30T03:38:08.746Z,-0.85
2023-01-30T03:40:36.815Z,-0.88
2023-01-30T03:43:04.730Z,-0.76
2023-01-30T03:45:33.237Z,-0.65
2023-01-30T03:48:01.135Z,-0.54
2023-01-30T03:50:29.747Z,-0.48
2023-01-30T03:52:57.732Z,-0.53
2023-01-30T03:55:25.699Z,-0.65
2023-01-30T03:57:58.263Z,-0.57
2023-01-30T04:00:29.814Z,-0.59
2023-01-30T04:02:59.209Z,-0.64
2023-01-30T04:05:27.292Z,-0.47
2023-01-30T04:08:00.630Z,-0.55
2023-01-30T04:10:28.902Z,-0.53
2023-01-30T04:12:57.108Z,-0.32
2023-01-30T04:15:25.245Z,-0.28
2023-01-30T04:18:05.642Z,-0.37
2023-01-30T04:20:46.999Z,-0.34
2023-01-30T04:23:19.116Z,-0.47
2023-01-30T04:25:47.325Z,-0.35
2023-01-30T04:28:18.801Z,-0.24
2023-01-30T04:30:46.996Z,-0.29
2023-01-30T04:33:47.438Z,-0.45
2023-01-30T04:36:16.144Z,-0.45
2023-01-30T04:38:45.884Z,-0.37
2023-01-30T04:41:13.875Z,-0.33
2023-01-30T04:43:43.582Z,-0.40
2023-01-30T04:46:24.090Z,-0.27
2023-01-30T04:48:52.169Z,-0.34
2023-01-30T04:51:20.222Z,-0.38
2023-01-30T04:53:48.996Z,-0.42
2023-01-30T04:56:17.080Z,-0.24
2023-01-30T04:58:45.514Z,-0.34
2023-01-30T05:01:31.297Z,-0.27
2023-01-30T05:04:00.103Z,-0.25
2023-01-30T05:06:28.917Z,-0.50
2023-01-30T05:08:57.802Z,-0.43
2023-01-30T05:11:27.761Z,-0.37
2023-01-30T05:13:56.229Z,-0.36
2023-01-30T05:16:24.955Z,-0.23
2023-01-30T05:18:53.067Z,-0.34
2023-01-30T05:21:26.475Z,-0.15
2023-01-30T05:23:55.279Z,-0.26
2023-01-30T05:26:24.229Z,-0.22
2023-01-30T05:28:57.650Z,-0.18
2023-01-30T05:31:26.240Z,-0.42
2023-01-30T05:33:54.427Z,-0.33
2023-01-30T05:36:23.916Z,-0.17
2023-01-30T05:38:51.915Z,-0.19
2023-01-30T05:41:19.816Z,-0.44
2023-01-30T05:43:51.472Z,-0.28
2023-01-30T05:46:19.994Z,-0.21
2023-01-30T05:48:48.575Z,-0.26
2023-01-30T05:51:20.179Z,-0.40
2023-01-30T05:53:48.534Z,-0.07
2023-01-30T05:56:17.152Z,-0.04
2023-01-30T05:58:51.376Z,-0.03
2023-01-30T06:01:19.782Z,-0.10
2023-01-30T06:03:47.976Z,-0.04
2023-01-30T06:06:16.480Z,0.03
2023-01-30T06:08:44.894Z,-0.07
2023-01-30T06:11:16.489Z,-0.12
2023-01-30T06:13:44.960Z,-0.19
2023-01-30T06:16:14.713Z,-0.29
2023-01-30T06:18:42.709Z,-0.38
2023-01-30T06:21:11.046Z,-0.50
2023-01-30T06:23:39.275Z,-0.63
2023-01-30T06:26:09.186Z,-0.72
2023-01-30T06:28:37.635Z,-0.63
2023-01-30T06:31:08.209Z,-0.57
2023-01-30T06:33:36.743Z,-0.67
2023-01-30T06:36:04.811Z,-0.66
2023-01-30T06:38:33.185Z,-0.57
2023-01-30T06:41:01.221Z,-0.66
2023-01-30T06:43:29.276Z,-0.64
2023-01-30T06:45:59.853Z,-0.69
2023-01-30T06:48:28.031Z,-0.67
2023-01-30T06:50:56.076Z,-0.73
2023-01-30T06:53:30.467Z,-0.85
2023-01-30T06:56:00.130Z,-0.71
2023-01-30T06:58:28.783Z,-0.59
2023-01-30T07:00:57.533Z,-0.58
2023-01-30T07:03:27.871Z,-0.52
2023-01-30T07:05:55.816Z,-0.47
2023-01-30T07:08:24.423Z,-0.57
2023-01-30T07:10:52.650Z,-0.51
2023-01-30T07:13:20.864Z,-0.58
2023-01-30T07:15:48.941Z,-0.51
2023-01-30T07:18:17.021Z,-0.53
2023-01-30T07:20:51.017Z,-0.70
2023-01-30T07:23:19.173Z,-0.82
2023-01-30T07:25:47.146Z,-0.66
2023-01-30T07:28:15.252Z,-0.65
2023-01-30T07:30:43.397Z,-0.77
2023-01-30T07:33:11.760Z,-0.70
2023-01-30T07:35:39.723Z,-0.81
2023-01-30T07:38:07.831Z,-0.59
2023-01-30T07:40:35.872Z,-0.57
2023-01-30T07:43:07.138Z,-0.38
2023-01-30T07:45:39.321Z,-0.30
2023-01-30T07:48:09.044Z,-0.21
2023-01-30T07:50:37.626Z,-0.29
2023-01-30T07:53:07.436Z,-0.41
2023-01-30T07:55:35.908Z,-0.32
2023-01-30T07:58:04.655Z,-0.29
2023-01-30T08:00:32.918Z,-0.33
2023-01-30T08:03:01.149Z,-0.37
2023-01-30T08:05:29.109Z,-0.32
2023-01-30T08:07:57.350Z,-0.14
2023-01-30T08:10:25.538Z,-0.27
2023-01-30T08:12:53.877Z,-0.32
2023-01-30T08:15:23.069Z,-0.62
2023-01-30T08:17:56.357Z,-0.60
2023-01-30T08:20:25.492Z,-0.42
2023-01-30T08:22:54.264Z,-0.34
2023-01-30T08:25:22.990Z,-0.38
2023-01-30T08:27:52.100Z,-0.21
2023-01-30T08:30:22.208Z,-0.08
2023-01-30T08:32:50.522Z,-0.07
2023-01-30T08:35:18.498Z,-0.11
2023-01-30T08:37:46.570Z,-0.11
2023-01-30T08:40:15.160Z,-0.17
2023-01-30T08:42:46.523Z,-0.16
2023-01-30T08:45:14.828Z,-0.25
2023-01-30T08:47:42.931Z,-0.06
2023-01-30T08:50:11.373Z,-0.11
2023-01-30T08:52:39.469Z,-0.18
2023-01-30T08:55:07.778Z,-0.05
2023-01-30T08:57:36.783Z,0.09
2023-01-30T09:00:05.888Z,0.14
2023-01-30T09:02:33.956Z,0.27
2023-01-30T09:05:01.891Z,0.42
2023-01-30T09:07:30.075Z,0.48
2023-01-30T09:09:58.076Z,0.62
2023-01-30T09:12:26.067Z,0.85
2023-01-30T09:14:58.375Z,0.92
2023-01-30T09:17:26.481Z,0.91
2023-01-30T09:19:54.289Z,0.78
2023-01-30T09:22:22.544Z,0.86
2023-01-30T09:24:50.399Z,0.87
2023-01-30T09:27:18.556Z,0.69
2023-01-30T09:29:46.459Z,0.75
2023-01-30T09:32:14.586Z,0.66
2023-01-30T09:34:42.548Z,0.80
2023-01-30T09:37:10.532Z,0.89
2023-01-30T09:39:38.656Z,1.04
2023-01-30T09:42:43.736Z,1.18
2023-01-30T09:45:36.583Z,0.97
2023-01-30T09:48:47.565Z,0.98
2023-01-30T09:51:22.810Z,1.09
2023-01-30T09:53:50.965Z,1.27
2023-01-30T09:56:18.824Z,1.15
2023-01-30T09:58:54.099Z,1.01
2023-01-30T10:01:36.919Z,0.99
2023-01-30T10:04:39.024Z,1.32
2023-01-30T10:07:11.216Z,1.26
2023-01-30T10:09:57.735Z,1.44
2023-01-30T10:12:47.199Z,1.53
2023-01-30T10:15:33.154Z,1.46
2023-01-30T10:18:27.367Z,1.62
2023-01-30T10:21:10.163Z,1.42
2023-01-30T10:24:07.946Z,1.58
2023-01-30T10:26:36.428Z,1.46
2023-01-30T10:29:16.396Z,1.51
2023-01-30T10:32:05.442Z,1.42
2023-01-30T10:34:39.077Z,1.47
2023-01-30T10:37:22.421Z,1.26
2023-01-30T10:40:03.127Z,1.28
2023-01-30T10:42:45.695Z,1.36
2023-01-30T10:45:20.663Z,1.55
2023-01-30T10:48:45.326Z,1.36
2023-01-30T10:51:25.983Z,1.31
2023-01-30T10:54:00.482Z,1.22
2023-01-30T10:56:37.449Z,1.39
2023-01-30T10:59:51.541Z,1.47
2023-01-30T11:02:40.860Z,1.63
2023-01-30T11:05:20.390Z,1.48
2023-01-30T11:07:49.600Z,1.24
2023-01-30T11:10:32.557Z,1.37
2023-01-30T11:13:15.740Z,1.40
2023-01-30T11:15:47.190Z,1.36
2023-01-30T11:21:11.127Z,1.19
2023-01-30T11:23:46.027Z,1.00
2023-01-30T11:26:29.461Z,1.16
2023-01-30T11:29:05.645Z,1.09
2023-01-30T11:31:41.327Z,1.20
2023-01-30T11:34:22.162Z,1.13
2023-01-30T11:36:52.499Z,1.09
2023-01-30T11:39:24.149Z,1.17
2023-01-30T11:41:55.648Z,1.28
2023-01-30T11:44:27.578Z,1.30
2023-01-30T11:47:00.732Z,1.39
2023-01-30T11:49:46.465Z,1.48
2023-01-30T11:52:24.505Z,1.37
2023-01-30T11:55:10.871Z,1.40
2023-01-30T11:57:52.228Z,1.17
2023-01-30T12:00:25.124Z,1.08
2023-01-30T12:02:54.851Z,1.34
2023-01-30T12:08:31.070Z,1.54
2023-01-30T12:11:03.512Z,1.57
2023-01-30T12:16:44.609Z,1.69
2023-01-30T12:19:21.395Z,1.55
2023-01-30T12:22:18.355Z,1.45
2023-01-30T12:24:55.487Z,1.51
2023-01-30T12:35:54.876Z,1.06
2023-01-30T12:38:47.233Z,1.19
2023-01-30T12:41:25.002Z,0.78
2023-01-30T12:44:16.415Z,0.87
2023-01-30T12:46:56.071Z,0.90
2023-01-30T12:49:40.471Z,1.02
2023-01-30T12:52:29.127Z,1.12
2023-01-30T12:58:08.712Z,1.21
2023-01-30T13:00:55.164Z,1.18
2023-01-30T13:03:33.596Z,1.29
2023-01-30T13:06:08.169Z,1.31
2023-01-30T13:09:26.851Z,1.13
2023-01-30T13:11:59.614Z,1.42
2023-01-30T13:14:36.910Z,1.48
2023-01-30T13:17:16.003Z,1.49
2023-01-30T13:20:24.263Z,1.33
2023-01-30T13:23:17.458Z,1.25
2023-01-30T13:26:02.477Z,1.26
2023-01-30T13:28:41.081Z,1.25
2023-01-30T13:31:15.278Z,1.27
2023-01-30T13:33:47.238Z,1.18
2023-01-30T13:36:21.148Z,1.29
2023-01-30T13:38:57.427Z,1.21
2023-01-30T13:41:30.198Z,1.25
2023-01-30T13:43:59.261Z,1.28
2023-01-30T13:46:29.782Z,1.35
2023-01-30T13:48:57.764Z,1.31
2023-01-30T13:51:51.021Z,1.32
2023-01-30T13:54:39.015Z,1.01
2023-01-30T13:57:45.724Z,0.86
2023-01-30T14:00:30.588Z,0.93
2023-01-30T14:03:07.628Z,1.01
2023-01-30T14:06:01.181Z,1.02
2023-01-30T14:08:50.420Z,1.09
2023-01-30T14:11:34.801Z,1.13
2023-01-30T14:14:16.053Z,1.10
2023-01-30T14:16:56.428Z,1.11
2023-01-30T14:19:24.497Z,1.23
2023-01-30T14:22:02.054Z,1.25
2023-01-30T14:24:32.036Z,1.16
2023-01-30T14:27:05.360Z,1.29
2023-01-30T14:29:42.186Z,1.33
2023-01-30T14:32:14.028Z,1.36
2023-01-30T14:35:02.175Z,1.20
2023-01-30T14:37:39.210Z,1.17
2023-01-30T14:40:22.445Z,0.99
2023-01-30T14:43:25.948Z,0.74
2023-01-30T14:45:57.894Z,0.72
2023-01-30T14:48:32.817Z,0.64
2023-01-30T14:51:21.271Z,0.65
2023-01-30T14:53:58.034Z,0.58
2023-01-30T14:56:49.861Z,0.49
2023-01-30T14:59:17.930Z,0.54
2023-01-30T15:02:21.809Z,0.47
2023-01-30T15:04:49.736Z,0.55
2023-01-30T15:07:29.420Z,0.48
2023-01-30T15:10:03.243Z,0.53
2023-01-30T15:12:33.976Z,0.58
2023-01-30T15:15:17.345Z,0.64
2023-01-30T15:18:07.916Z,0.66
2023-01-30T15:21:03.424Z,0.62
2023-01-30T15:24:04.730Z,0.62
2023-01-30T15:27:09.484Z,0.59
2023-01-30T15:30:04.430Z,0.63
2023-01-30T15:32:33.839Z,0.53
2023-01-30T15:35:24.733Z,0.27
2023-01-30T15:37:55.041Z,0.37
2023-01-30T15:40:29.240Z,0.33
2023-01-30T15:43:14.023Z,0.45
2023-01-30T15:46:03.828Z,0.46
2023-01-30T15:48:50.146Z,0.39
2023-01-30T15:51:24.959Z,0.36
2023-01-30T15:53:57.040Z,0.29
2023-01-30T15:56:31.768Z,0.43
2023-01-30T15:59:05.076Z,0.33
2023-01-30T16:01:33.586Z,0.43
2023-01-30T16:04:06.112Z,0.39
2023-01-30T16:06:37.501Z,0.32
2023-01-30T16:09:33.054Z,0.20
2023-01-30T16:12:01.355Z,0.30
2023-01-30T16:14:30.085Z,0.36
2023-01-30T16:17:14.483Z,0.34
2023-01-30T16:19:43.925Z,0.38
2023-01-30T16:22:19.136Z,0.37
2023-01-30T16:24:53.708Z,0.31
2023-01-30T16:27:30.677Z,-0.04
2023-01-30T16:30:06.763Z,0.11
2023-01-30T16:35:28.146Z,0.20
2023-01-30T16:37:59.045Z,0.22
2023-01-30T16:40:43.482Z,0.18
2023-01-30T16:46:53.458Z,0.10
2023-01-30T16:49:40.436Z,0.06
2023-01-30T16:52:18.594Z,-0.02
2023-01-30T16:55:12.339Z,-0.07
2023-01-30T16:58:05.145Z,-0.01
2023-01-30T17:03:32.009Z,-0.21
2023-01-30T17:06:05.750Z,-0.22
2023-01-30T17:08:40.519Z,-0.24
2023-01-30T17:11:13.497Z,-0.30
2023-01-30T17:13:43.471Z,-0.57
2023-01-30T17:24:36.711Z,-0.51
2023-01-30T17:27:05.284Z,-0.67
2023-01-30T17:29:43.438Z,-0.73
2023-01-30T17:35:00.812Z,-0.79
2023-01-30T17:37:29.670Z,-0.76
2023-01-30T17:39:58.074Z,-0.71
2023-01-30T17:42:26.643Z,-0.79
2023-01-30T17:45:00.250Z,-0.83
2023-01-30T17:47:36.885Z,-0.91
2023-01-30T17:50:06.584Z,-0.91
2023-01-30T17:52:34.949Z,-0.87
2023-01-30T17:55:03.481Z,-0.83
2023-01-30T17:57:34.118Z,-0.84
2023-01-30T18:00:02.660Z,-0.78
2023-01-30T18:02:37.672Z,-0.85
2023-01-30T18:05:06.745Z,-0.80
2023-01-30T18:07:35.165Z,-0.74
2023-01-30T18:10:04.341Z,-0.65
2023-01-30T18:12:32.826Z,-0.73
2023-01-30T18:15:01.362Z,-0.60
2023-01-30T18:17:29.856Z,-0.58
2023-01-30T18:20:01.564Z,-0.52
2023-01-30T18:22:30.051Z,-0.49
2023-01-30T18:24:58.907Z,-0.50
2023-01-30T18:27:29.416Z,-0.57
2023-01-30T18:29:57.870Z,-0.56
2023-01-30T18:32:26.473Z,-0.67
2023-01-30T18:34:56.345Z,-0.63
2023-01-30T18:37:25.809Z,-0.71
2023-01-30T18:39:54.454Z,-0.64
2023-01-30T18:42:23.277Z,-0.60
2023-01-30T18:44:51.636Z,-0.89
2023-01-30T18:47:20.331Z,-0.66
2023-01-30T18:49:49.016Z,-0.63
2023-01-30T18:52:17.628Z,-0.78
2023-01-30T18:54:46.179Z,-0.84
2023-01-30T18:57:14.589Z,-0.96
2023-01-30T18:59:43.245Z,-1.08
2023-01-30T19:02:14.486Z,-0.97
2023-01-30T19:04:43.480Z,-0.90
2023-01-30T19:07:12.081Z,-0.83
2023-01-30T19:09:40.555Z,-0.87
2023-01-30T19:12:28.214Z,-0.80
2023-01-30T19:14:56.907Z,-0.84
2023-01-30T19:17:25.249Z,-0.92
2023-01-30T19:19:53.772Z,-0.95
2023-01-30T19:22:22.497Z,-0.98
2023-01-30T19:24:50.974Z,-0.87
2023-01-30T19:27:19.128Z,-1.21
2023-01-30T19:29:47.430Z,-0.97
2023-01-30T19:32:16.292Z,-0.90
2023-01-30T19:34:45.769Z,-0.82
2023-01-30T19:37:13.780Z,-0.77
2023-01-30T19:39:41.909Z,-0.83
2023-01-30T19:42:10.511Z,-0.74
2023-01-30T19:44:41.248Z,-0.87
2023-01-30T19:47:09.664Z,-0.99
2023-01-30T19:49:38.101Z,-0.91
2023-01-30T19:52:06.576Z,-0.87
2023-01-30T19:54:35.084Z,-0.78
2023-01-30T19:57:03.355Z,-0.73
2023-01-30T19:59:31.633Z,-0.72
2023-01-30T20:02:00.481Z,-0.82
2023-01-30T20:04:29.032Z,-1.00
2023-01-30T20:06:57.483Z,-0.99
2023-01-30T20:09:25.886Z,-0.99
2023-01-30T20:11:54.423Z,-1.25
2023-01-30T20:14:22.997Z,-1.01
2023-01-30T20:16:51.397Z,-1.11
2023-01-30T20:19:19.857Z,-1.09
2023-01-30T20:21:47.942Z,-1.17
2023-01-30T20:24:17.039Z,-1.04
2023-01-30T20:26:48.216Z,-0.96
2023-01-30T20:29:18.232Z,-1.03
2023-01-30T20:31:47.107Z,-0.98
2023-01-30T20:34:15.922Z,-1.06
2023-01-30T20:36:43.995Z,-1.09
2023-01-30T20:39:13.131Z,-1.05
2023-01-30T20:41:41.523Z,-1.10
2023-01-30T20:44:13.483Z,-1.25
2023-01-30T20:46:44.840Z,-1.22
2023-01-30T20:49:16.391Z,-1.34
2023-01-30T20:51:45.845Z,-1.17
2023-01-30T20:54:15.204Z,-1.04
2023-01-30T20:56:49.163Z,-1.21
2023-01-30T20:59:20.474Z,-1.07
2023-01-30T21:01:48.499Z,-0.96
2023-01-30T21:04:18.593Z,-0.93
2023-01-30T21:06:47.331Z,-1.01
2023-01-30T21:09:18.610Z,-0.93
2023-01-30T21:11:47.769Z,-1.03
2023-01-30T21:14:16.623Z,-0.94
2023-01-30T21:16:45.317Z,-0.88
2023-01-30T21:19:16.646Z,-0.96
2023-01-30T21:21:51.257Z,-0.97
2023-01-30T21:24:24.002Z,-1.08
2023-01-30T21:26:52.845Z,-1.20
2023-01-30T21:29:23.914Z,-1.06
2023-01-30T21:31:52.910Z,-1.08
2023-01-30T21:34:21.031Z,-1.04
2023-01-30T21:37:08.955Z,-1.05
2023-01-30T21:39:56.039Z,-1.01
2023-01-30T21:42:42.333Z,-1.00
2023-01-30T21:45:10.607Z,-1.13
2023-01-30T21:47:38.900Z,-1.15
2023-01-30T21:50:07.384Z,-1.24
2023-01-30T21:52:35.354Z,-1.28
2023-01-30T21:55:03.424Z,-1.52
2023-01-30T21:57:31.338Z,-1.39
2023-01-30T21:59:59.688Z,-1.62
2023-01-30T22:02:27.568Z,-1.40
2023-01-30T22:04:55.910Z,-1.49
2023-01-30T22:07:24.112Z,-1.48
2023-01-30T22:09:52.169Z,-1.26
2023-01-30T22:12:20.190Z,-1.26
2023-01-30T22:14:48.303Z,-1.15
2023-01-30T22:17:16.606Z,-1.18
2023-01-30T22:19:47.467Z,-1.06
2023-01-30T22:22:15.599Z,-1.28
2023-01-30T22:24:43.485Z,-1.15
2023-01-30T22:27:11.528Z,-1.15
2023-01-30T22:29:39.700Z,-1.30
2023-01-30T22:32:07.708Z,-1.28
2023-01-30T22:34:36.098Z,-1.18
2023-01-30T22:37:04.500Z,-1.01
2023-01-30T22:39:32.503Z,-1.06
2023-01-30T22:42:00.401Z,-0.96
2023-01-30T22:44:28.426Z,-0.98
2023-01-30T22:46:56.342Z,-0.95
2023-01-30T22:49:24.493Z,-0.99
2023-01-30T22:51:52.687Z,-1.28
2023-01-30T22:54:20.647Z,-1.16
2023-01-30T22:56:49.630Z,-1.15
2023-01-30T22:59:17.565Z,-1.07
2023-01-30T23:01:48.012Z,-1.18
2023-01-30T23:04:19.204Z,-1.21
2023-01-30T23:06:49.095Z,-1.12
2023-01-30T23:09:19.760Z,-1.10
2023-01-30T23:12:09.632Z,-1.16
2023-01-30T23:14:39.112Z,-1.18
2023-01-30T23:17:26.704Z,-1.34
2023-01-30T23:19:55.560Z,-1.21
2023-01-30T23:22:24.174Z,-1.42
2023-01-30T23:24:52.419Z,-1.64
2023-01-30T23:27:21.224Z,-1.47
2023-01-30T23:29:49.204Z,-1.39
2023-01-30T23:32:20.245Z,-1.61
2023-01-30T23:34:48.533Z,-1.49
2023-01-30T23:37:17.725Z,-1.64
2023-01-30T23:39:45.806Z,-1.37
2023-01-30T23:42:13.816Z,-1.71
2023-01-30T23:44:41.654Z,-1.65
2023-01-30T23:47:09.659Z,-1.67
2023-01-30T23:49:37.839Z,-1.46
2023-01-30T23:52:06.050Z,-1.32
2023-01-30T23:54:34.055Z,-1.23
2023-01-30T23:57:02.037Z,-1.03
2023-01-30T23:59:29.934Z,-1.14
